NCAR-RAP Real-Time Weather Data

Output produced by METARs form (08 May 2021  02:20 UTC)
found at http://weather.rap.ucar.edu/surface/
 
KSLC 080154Z AUTO 01020G27KT 10SM OVC080 17/06 A2991 RMK AO2 PK WND 30034/0055 RAB26E52 SLP084 P0000 T01670061
KSLC 080115Z 36021KT 6SM HZ FEW011 BKN095 OVC150 18/05 A2988 RMK AO2 PK WND 30034/0055 SH DSNT E AND SW-N T01830050
KSLC 080101Z 33024G34KT 2SM HZ SCT015 OVC095 19/05 A2986 RMK AO2 PK WND 30034/0055 SH DSNT SW-N T01940050
KSLC 080054Z 31024G33KT 2SM HZ BKN015 BKN090 OVC150 19/06 A2986 RMK AO2 PK WND 33038/0035 SFC VIS 2 1/2 PRESRR SLP066 SH DSNT SW-N T01940056
KSLC 080025Z 31020G31KT 2 1/2SM HZ BKN017 BKN100 OVC150 21/04 A2981 RMK AO2 PK WND 32036/0013 SFC VIS 3 PRESRR VIRGA SH DSNT W-N T02060044
KSLC 080005Z 30027G35KT 2 1/2SM HZ FEW012 BKN090TCU OVC160 22/06 A2977 RMK AO2 PK WND 28035/2358 VIS 1 1/2V5 PRESRR VIRGA TCU W T02220056
KSLC 080003Z 30025G35KT 3SM HZ FEW012 BKN090TCU BKN160 23/06 A2977 RMK AO2 PK WND 28035/2358 PRESRR VIRGA TCU W T02280056
KSLC 072354Z 29015G23KT 10SM SCT090TCU BKN150 BKN200 24/00 A2976 RMK AO2 SLP024 VIRGA TCU SW-W T02440000 10300 20244 55008
KSLC 072254Z 34015KT 10SM SCT100TCU BKN150 BKN200 26/M01 A2974 RMK AO2 SLP017 VIRGA TCU OHD AND DSNT ALQDS T02561011
KSLC 072154Z 01011KT 10SM SCT100TCU BKN130 BKN150 25/M01 A2976 RMK AO2 SLP023 VIRGA TCU OHD AND DSNT ALQDS T02501006
KSLC 072054Z 36014KT 10SM SCT110TCU BKN150 BKN250 26/M01 A2978 RMK AO2 PK WND 24026/2016 WSHFT 2015 SLP033 VIRGA CB DSNT NW TCU SE T02561006 56015
KSLC 072030Z 31015KT 10SM SCT100 BKN180 BKN250 28/M03 A2979 RMK AO2 PK WND 24026/2016 WSHFT 2015 TCU DSNT NW T02781028
KSLC 072023Z COR 32016G26KT 10SM FEW100 SCT180 BKN250 28/M03 A2978 RMK AO2 PK WND 24026/2016 TCU DSNT NW T02831028
KSLC 071954Z VRB03KT 10SM SCT110 SCT180 BKN250 28/M04 A2979 RMK AO2 SLP033 VIRGA TCU DSNT NW CCSL OHD T02781039
KSLC 071854Z VRB03KT 10SM FEW100 SCT150 SCT250 28/M03 A2982 RMK AO2 SLP041 T02831033
KSLC 071815Z COR 27014KT 10SM FEW100 FEW150 SCT250 28/M03 A2983 RMK AO2 PK WND 16032/1741 SLP045 ACSL DSNT NE T02781033 10283 20189 58009
KSLC 071754Z 17017G26KT 10SM FEW100 FEW150 SCT250 28/M03 A2983 RMK AO2 PK WND 16032/1741 SLP045 ACSL DSNT NE T02781033 10283 20189 58009
KSLC 071654Z 17017G28KT 10SM FEW100 SCT170 SCT250 27/M03 A2985 RMK AO2 PK WND 18028/1634 SLP051 T02721033
KSLC 071554Z 17021G26KT 10SM FEW110 SCT180 SCT250 26/M03 A2986 RMK AO2 PK WND 16028/1509 SLP055 CCSL OHD T02561028
KSLC 071454Z 17017G23KT 10SM FEW110 SCT160 BKN250 24/M04 A2986 RMK AO2 SLP058 T02391039 58005
KSLC 071354Z 16016KT 10SM SCT140 SCT200 BKN250 22/M04 A2987 RMK AO2 SLP060 T02221044
KSLC 071254Z 13009KT 10SM FEW090 BKN150 19/M03 A2988 RMK AO2 SLP064 T01891033